createdAt,value
2022-12-26T00:00:00.677Z,41.47
2022-12-26T00:00:23.557Z,39.45
2022-12-26T00:00:46.746Z,37.75
2022-12-26T00:01:11.038Z,37.33
2022-12-26T00:01:34.748Z,38.10
2022-12-26T00:01:57.669Z,39.58
2022-12-26T00:02:20.620Z,39.28
2022-12-26T00:02:43.786Z,38.97
2022-12-26T00:03:06.816Z,38.55
2022-12-26T00:03:30.877Z,37.42
2022-12-26T00:03:53.945Z,40.45
2022-12-26T00:04:50.707Z,43.28
2022-12-26T00:04:59.660Z,42.35
2022-12-26T00:05:22.478Z,43.58
2022-12-26T00:05:45.316Z,40.92
2022-12-26T00:06:13.612Z,39.60
2022-12-26T00:06:36.334Z,43.47
2022-12-26T00:06:59.053Z,41.38
2022-12-26T00:07:21.798Z,39.78
2022-12-26T00:07:44.808Z,41.88
2022-12-26T00:08:08.217Z,42.42
2022-12-26T00:08:30.946Z,40.58
2022-12-26T00:08:53.761Z,42.70
2022-12-26T00:09:17.329Z,43.15
2022-12-26T00:09:40.103Z,40.20
2022-12-26T00:10:02.788Z,45.60
2022-12-26T00:10:25.472Z,41.55
2022-12-26T00:10:48.172Z,40.85
2022-12-26T00:11:10.978Z,40.60
2022-12-26T00:11:33.861Z,39.20
2022-12-26T00:11:57.115Z,43.67
2022-12-26T00:12:19.863Z,43.28
2022-12-26T00:12:42.769Z,42.83
2022-12-26T00:13:37.242Z,43.70
2022-12-26T00:13:54.175Z,42.95
2022-12-26T00:14:17.450Z,41.78
2022-12-26T00:14:40.531Z,43.22
2022-12-26T00:15:03.194Z,41.10
2022-12-26T00:15:25.932Z,42.53
2022-12-26T00:15:48.635Z,43.10
2022-12-26T00:16:12.225Z,45.92
2022-12-26T00:16:35.160Z,45.50
2022-12-26T00:16:58.008Z,45.42
2022-12-26T00:17:20.757Z,42.45
2022-12-26T00:17:43.551Z,43.75
2022-12-26T00:18:06.318Z,41.85
2022-12-26T00:18:29.058Z,44.30
2022-12-26T00:18:51.785Z,37.70
2022-12-26T00:19:14.757Z,40.05
2022-12-26T00:19:37.495Z,37.13
2022-12-26T00:20:00.213Z,37.17
2022-12-26T00:20:22.914Z,36.70
2022-12-26T00:20:48.159Z,37.92
2022-12-26T00:21:11.815Z,40.55
2022-12-26T00:21:35.542Z,40.22
2022-12-26T00:21:58.287Z,37.45
2022-12-26T00:22:20.998Z,37.90
2022-12-26T00:22:43.751Z,38.00
2022-12-26T00:23:09.929Z,39.08
2022-12-26T00:23:32.765Z,37.13
2022-12-26T00:23:55.668Z,40.17
2022-12-26T00:24:18.345Z,37.15
2022-12-26T00:24:41.184Z,36.35
2022-12-26T00:25:04.312Z,39.90
2022-12-26T00:25:27.098Z,38.03
2022-12-26T00:25:49.797Z,39.97
2022-12-26T00:26:13.455Z,34.85
2022-12-26T00:26:37.000Z,35.60
2022-12-26T00:26:59.716Z,35.72
2022-12-26T00:27:22.756Z,35.95
2022-12-26T00:27:45.434Z,42.55
2022-12-26T00:28:08.171Z,41.38
2022-12-26T00:28:31.143Z,34.38
2022-12-26T00:28:57.503Z,36.83
2022-12-26T00:29:20.242Z,35.58
2022-12-26T00:29:45.174Z,38.63
2022-12-26T00:30:10.019Z,42.10
2022-12-26T00:30:32.802Z,40.63
2022-12-26T00:30:55.514Z,40.47
2022-12-26T00:31:19.391Z,39.15
2022-12-26T00:31:42.235Z,40.47
2022-12-26T00:32:05.384Z,41.28
2022-12-26T00:32:28.317Z,40.78
2022-12-26T00:32:51.035Z,38.17
2022-12-26T00:33:13.758Z,38.67
2022-12-26T00:33:36.647Z,36.97
2022-12-26T00:33:59.464Z,36.70
2022-12-26T00:34:22.193Z,39.20
2022-12-26T00:34:47.305Z,40.63
2022-12-26T00:35:10.231Z,37.35
2022-12-26T00:35:33.639Z,38.53
2022-12-26T00:36:02.749Z,37.50
2022-12-26T00:36:28.187Z,37.63
2022-12-26T00:36:50.979Z,35.72
2022-12-26T00:37:13.728Z,40.65
2022-12-26T00:37:36.522Z,49.20
2022-12-26T00:37:59.196Z,61.10
2022-12-26T00:38:21.874Z,58.60
2022-12-26T00:38:45.188Z,65.15
2022-12-26T00:39:08.519Z,58.38
2022-12-26T00:39:31.355Z,62.30
2022-12-26T00:39:54.093Z,56.28
2022-12-26T00:40:16.848Z,49.70
2022-12-26T00:40:43.601Z,51.60
2022-12-26T00:41:06.475Z,41.35
2022-12-26T00:41:29.363Z,39.53
2022-12-26T00:41:52.056Z,43.17
2022-12-26T00:42:14.795Z,56.92
2022-12-26T00:42:37.579Z,47.97
2022-12-26T00:43:00.344Z,41.28
2022-12-26T00:43:23.045Z,39.17
2022-12-26T00:43:45.879Z,50.63
2022-12-26T00:44:10.055Z,46.25
2022-12-26T00:44:32.823Z,46.45
2022-12-26T00:44:55.547Z,49.83
2022-12-26T00:45:18.483Z,49.88
2022-12-26T00:45:44.895Z,48.30
2022-12-26T00:46:07.870Z,48.85
2022-12-26T00:46:30.923Z,45.92
2022-12-26T00:46:56.224Z,39.55
2022-12-26T00:47:19.118Z,45.00
2022-12-26T00:47:41.944Z,44.17
2022-12-26T00:48:04.901Z,40.58
2022-12-26T00:48:27.708Z,46.20
2022-12-26T00:48:50.481Z,50.15
2022-12-26T00:49:13.196Z,45.10
2022-12-26T00:50:12.518Z,47.60
2022-12-26T00:50:19.033Z,47.95
2022-12-26T00:50:41.763Z,65.90
2022-12-26T00:51:04.630Z,49.60
2022-12-26T00:51:27.352Z,40.97
2022-12-26T00:51:50.054Z,44.15
2022-12-26T00:52:14.977Z,46.28
2022-12-26T00:52:37.785Z,52.47
2022-12-26T00:53:00.547Z,51.83
2022-12-26T00:53:23.517Z,82.63
2022-12-26T00:53:46.428Z,70.07
2022-12-26T00:54:09.199Z,66.80
2022-12-26T00:54:34.403Z,74.93
2022-12-26T00:54:57.143Z,77.80
2022-12-26T00:55:19.911Z,77.57
2022-12-26T00:55:44.188Z,80.45
2022-12-26T00:56:07.620Z,96.10
2022-12-26T00:56:30.342Z,96.07
2022-12-26T00:56:53.064Z,81.30
2022-12-26T00:57:15.832Z,124.20
2022-12-26T00:57:38.562Z,110.03
2022-12-26T00:58:01.264Z,96.63
2022-12-26T00:58:24.283Z,82.82
2022-12-26T00:58:46.998Z,72.28
2022-12-26T00:59:11.175Z,141.25
2022-12-26T00:59:34.230Z,203.40
2022-12-26T00:59:56.970Z,191.55
2022-12-26T01:00:19.913Z,153.45
2022-12-26T01:00:42.657Z,121.57
2022-12-26T01:01:07.220Z,114.10
2022-12-26T01:01:31.375Z,146.73
2022-12-26T01:01:54.535Z,74.53
2022-12-26T01:02:36.380Z,88.13
2022-12-26T01:02:59.458Z,147.50
2022-12-26T01:03:22.396Z,183.18
2022-12-26T01:03:45.437Z,101.55
2022-12-26T01:04:08.157Z,101.82
2022-12-26T01:04:30.894Z,64.72
2022-12-26T01:04:53.625Z,75.50
2022-12-26T01:05:16.360Z,65.82
2022-12-26T01:05:41.823Z,54.50
2022-12-26T01:06:05.310Z,59.58
2022-12-26T01:06:28.054Z,73.82
2022-12-26T01:06:50.729Z,70.15
2022-12-26T01:07:13.453Z,74.47
2022-12-26T01:08:22.303Z,71.43
2022-12-26T01:08:24.535Z,57.80
2022-12-26T01:08:48.093Z,58.55
2022-12-26T01:09:12.328Z,59.95
2022-12-26T01:09:36.469Z,59.83
2022-12-26T01:10:00.238Z,84.78
2022-12-26T01:10:22.973Z,125.32
2022-12-26T01:10:46.850Z,87.90
2022-12-26T01:11:12.034Z,66.13
2022-12-26T01:11:40.857Z,76.60
2022-12-26T01:12:03.789Z,86.88
2022-12-26T01:12:27.744Z,78.47
2022-12-26T01:12:50.472Z,62.75
2022-12-26T01:13:13.262Z,100.25
2022-12-26T01:13:36.534Z,100.03
2022-12-26T01:13:59.181Z,74.00
2022-12-26T01:14:23.420Z,89.60
2022-12-26T01:14:46.296Z,82.60
2022-12-26T01:15:10.376Z,64.07
2022-12-26T01:15:35.570Z,61.70
2022-12-26T01:15:58.447Z,55.67
2022-12-26T01:16:23.779Z,59.08
2022-12-26T01:16:46.854Z,81.13
2022-12-26T01:17:09.734Z,53.65
2022-12-26T01:17:32.492Z,64.05
2022-12-26T01:17:55.236Z,57.38
2022-12-26T01:18:18.198Z,56.85
2022-12-26T01:18:40.999Z,59.30
2022-12-26T01:19:03.857Z,54.15
2022-12-26T01:19:27.534Z,50.95
2022-12-26T01:19:50.328Z,61.95
2022-12-26T01:20:13.000Z,64.57
2022-12-26T01:20:35.729Z,53.83
2022-12-26T01:20:59.939Z,51.08
2022-12-26T01:21:22.704Z,39.80
2022-12-26T01:21:45.519Z,48.03
2022-12-26T01:22:08.218Z,57.78
2022-12-26T01:22:30.916Z,53.58
2022-12-26T01:22:53.878Z,46.47
2022-12-26T01:23:16.969Z,50.95
2022-12-26T01:23:39.689Z,71.10
2022-12-26T01:24:02.419Z,52.15
2022-12-26T01:24:25.148Z,59.70
2022-12-26T01:24:47.833Z,54.08
2022-12-26T01:25:11.124Z,56.38
2022-12-26T01:25:33.854Z,70.75
2022-12-26T01:26:15.372Z,58.08
2022-12-26T01:26:39.220Z,85.07
2022-12-26T01:27:03.057Z,94.85
2022-12-26T01:27:26.372Z,80.97
2022-12-26T01:27:49.059Z,62.20
2022-12-26T01:28:11.732Z,61.38
2022-12-26T01:28:35.540Z,66.25
2022-12-26T01:28:58.502Z,68.25
2022-12-26T01:29:22.875Z,78.38
2022-12-26T01:29:45.891Z,74.82
2022-12-26T01:30:10.089Z,68.30
2022-12-26T01:30:32.902Z,70.50
2022-12-26T01:30:55.785Z,79.55
2022-12-26T01:31:18.718Z,68.25
2022-12-26T01:31:41.553Z,54.10
2022-12-26T01:32:05.110Z,55.15
2022-12-26T01:32:28.007Z,58.47
2022-12-26T01:32:50.768Z,65.22
2022-12-26T01:33:13.477Z,60.00
2022-12-26T01:33:36.836Z,56.50
2022-12-26T01:33:59.555Z,49.38
2022-12-26T01:34:22.424Z,56.42
2022-12-26T01:34:45.209Z,52.08
2022-12-26T01:35:09.452Z,67.90
2022-12-26T01:35:32.274Z,82.75
2022-12-26T01:35:55.088Z,55.85
2022-12-26T01:36:17.974Z,54.58
2022-12-26T01:36:41.792Z,62.25
2022-12-26T01:37:04.498Z,51.53
2022-12-26T01:37:27.329Z,42.92
2022-12-26T01:37:50.153Z,44.33
2022-12-26T01:38:12.918Z,44.55
2022-12-26T01:38:35.683Z,46.15
2022-12-26T01:38:58.359Z,38.03
2022-12-26T01:39:21.138Z,44.10
2022-12-26T01:39:43.976Z,49.08
2022-12-26T01:40:08.547Z,39.88
2022-12-26T01:40:31.871Z,44.85
2022-12-26T01:41:14.799Z,45.88
2022-12-26T01:41:37.743Z,39.42
2022-12-26T01:42:00.483Z,46.38
2022-12-26T01:42:24.020Z,47.10
2022-12-26T01:42:46.849Z,41.47
2022-12-26T01:43:10.903Z,54.90
2022-12-26T01:44:04.347Z,67.57
2022-12-26T01:45:08.980Z,48.03
2022-12-26T01:45:33.491Z,43.08
2022-12-26T01:45:56.316Z,44.88
2022-12-26T01:46:20.498Z,42.63
2022-12-26T01:46:44.565Z,42.90
2022-12-26T01:47:07.271Z,47.70
2022-12-26T01:47:42.107Z,46.25
2022-12-26T01:48:06.037Z,44.72
2022-12-26T01:48:33.548Z,51.13
2022-12-26T01:49:00.980Z,45.13
2022-12-26T01:49:30.183Z,47.92
2022-12-26T01:49:54.273Z,46.38
2022-12-26T01:50:25.710Z,47.33
2022-12-26T01:50:51.043Z,46.45
2022-12-26T01:51:13.776Z,49.55
2022-12-26T01:51:38.884Z,44.53
2022-12-26T01:52:02.897Z,47.30
2022-12-26T01:52:29.443Z,53.35
2022-12-26T01:52:52.184Z,44.90
2022-12-26T01:53:16.325Z,39.35
2022-12-26T01:53:40.880Z,36.85
2022-12-26T01:54:39.124Z,48.88
2022-12-26T01:54:48.727Z,46.20
2022-12-26T01:55:12.971Z,47.22
2022-12-26T01:55:35.894Z,45.55
2022-12-26T01:56:00.561Z,47.70
2022-12-26T01:56:25.444Z,50.63
2022-12-26T01:56:48.174Z,53.35
2022-12-26T01:57:12.331Z,53.22
2022-12-26T01:57:37.962Z,53.15
2022-12-26T01:58:03.300Z,41.97
2022-12-26T01:58:28.933Z,45.13
2022-12-26T01:58:56.171Z,46.50
2022-12-26T01:59:19.749Z,49.72
2022-12-26T01:59:42.423Z,47.70
2022-12-26T02:00:06.753Z,47.22
2022-12-26T02:00:29.479Z,41.67
2022-12-26T02:00:53.709Z,39.22
2022-12-26T02:01:16.519Z,47.05
2022-12-26T02:01:40.559Z,44.88
2022-12-26T02:02:03.503Z,58.78
2022-12-26T02:02:27.164Z,54.63
2022-12-26T02:03:09.060Z,79.70
2022-12-26T02:03:50.582Z,61.58
2022-12-26T02:04:34.227Z,141.25
2022-12-26T02:05:16.010Z,64.05
2022-12-26T02:05:38.733Z,53.20
2022-12-26T02:06:01.504Z,60.65
2022-12-26T02:06:24.181Z,49.13
2022-12-26T02:06:46.899Z,42.33
2022-12-26T02:07:09.717Z,57.08
2022-12-26T02:07:32.771Z,48.00
2022-12-26T02:07:55.430Z,44.95
2022-12-26T02:08:19.903Z,84.38
2022-12-26T02:08:42.649Z,139.23
2022-12-26T02:09:06.746Z,100.97
2022-12-26T02:09:29.466Z,79.35
2022-12-26T02:09:52.251Z,81.90
2022-12-26T02:10:17.356Z,60.25
2022-12-26T02:10:43.855Z,64.30
2022-12-26T02:11:11.136Z,63.92
2022-12-26T02:11:35.057Z,59.33
2022-12-26T02:12:34.204Z,80.88
2022-12-26T02:12:43.013Z,59.28
2022-12-26T02:13:05.869Z,61.15
2022-12-26T02:13:29.458Z,64.38
2022-12-26T02:13:52.890Z,54.38
2022-12-26T02:14:15.696Z,52.25
2022-12-26T02:14:38.549Z,40.90
2022-12-26T02:15:01.332Z,51.45
2022-12-26T02:15:23.993Z,58.47
2022-12-26T02:15:48.966Z,47.08
2022-12-26T02:16:14.148Z,57.28
2022-12-26T02:16:38.667Z,66.43
2022-12-26T02:17:01.432Z,50.53
2022-12-26T02:17:24.274Z,37.10
2022-12-26T02:17:47.948Z,48.92
2022-12-26T02:18:10.678Z,47.63
2022-12-26T02:18:33.385Z,58.45
2022-12-26T02:18:56.183Z,31.58
2022-12-26T02:19:26.555Z,51.65
2022-12-26T02:19:51.364Z,80.03
2022-12-26T02:20:18.438Z,47.53
2022-12-26T02:20:43.529Z,48.15
2022-12-26T02:21:21.135Z,51.85
2022-12-26T02:22:11.713Z,38.70
2022-12-26T02:23:11.215Z,42.83
2022-12-26T02:24:09.960Z,61.03
2022-12-26T02:24:49.304Z,62.08
2022-12-26T02:25:42.417Z,75.68
2022-12-26T02:27:01.773Z,86.72
2022-12-26T02:27:35.853Z,48.88
2022-12-26T02:28:13.146Z,46.22
2022-12-26T02:29:01.775Z,49.20
2022-12-26T02:30:02.726Z,66.40
2022-12-26T02:30:33.733Z,49.22
2022-12-26T02:30:56.718Z,46.53
2022-12-26T02:31:20.077Z,44.67
2022-12-26T02:31:45.012Z,43.97
2022-12-26T02:32:11.436Z,46.05
2022-12-26T02:33:06.585Z,104.20
2022-12-26T02:33:38.005Z,84.18
2022-12-26T02:34:04.740Z,69.50
2022-12-26T02:34:29.128Z,73.80
2022-12-26T02:34:56.493Z,52.90
2022-12-26T02:35:25.143Z,38.53
2022-12-26T02:36:04.484Z,47.60
2022-12-26T02:36:35.687Z,90.05
2022-12-26T02:37:07.293Z,66.75
2022-12-26T02:37:38.748Z,82.82
2022-12-26T02:38:06.058Z,68.72
2022-12-26T02:38:34.025Z,114.20
2022-12-26T02:39:43.326Z,100.95
2022-12-26T02:39:58.171Z,64.40
2022-12-26T02:40:31.703Z,44.20
2022-12-26T02:41:00.015Z,55.85
2022-12-26T02:41:26.434Z,38.78
2022-12-26T02:41:52.739Z,53.50
2022-12-26T02:42:24.016Z,48.80
2022-12-26T02:42:54.757Z,49.92
2022-12-26T02:43:22.383Z,40.20
2022-12-26T02:43:49.768Z,48.15
2022-12-26T02:44:35.068Z,39.50
2022-12-26T02:45:19.772Z,31.95
2022-12-26T02:46:05.531Z,36.22
2022-12-26T02:46:51.338Z,40.20
2022-12-26T02:47:16.834Z,36.33
2022-12-26T02:47:46.574Z,36.80
2022-12-26T02:48:13.642Z,29.65
2022-12-26T02:48:41.292Z,32.13
2022-12-26T02:49:06.536Z,30.13
2022-12-26T02:49:56.320Z,30.80
2022-12-26T02:50:40.908Z,25.10
2022-12-26T02:51:24.266Z,35.42
2022-12-26T02:52:14.463Z,31.33
2022-12-26T02:53:00.178Z,26.17
2022-12-26T02:53:46.515Z,26.60
2022-12-26T02:54:32.397Z,30.25
2022-12-26T02:55:15.869Z,30.35
2022-12-26T02:55:57.559Z,34.97
2022-12-26T02:56:46.244Z,47.00
2022-12-26T02:57:30.724Z,35.28
2022-12-26T02:58:15.349Z,32.70
2022-12-26T02:59:00.829Z,45.90
2022-12-26T02:59:53.760Z,31.20
2022-12-26T03:00:38.169Z,31.17
2022-12-26T03:01:24.634Z,58.33
2022-12-26T03:02:06.846Z,29.83
2022-12-26T03:02:50.615Z,41.63
2022-12-26T03:03:34.141Z,38.28
2022-12-26T03:04:15.808Z,44.45
2022-12-26T03:04:57.370Z,36.63
2022-12-26T03:06:02.085Z,29.15
2022-12-26T03:06:44.158Z,26.08
2022-12-26T03:07:29.134Z,28.02
2022-12-26T03:08:10.416Z,23.02
2022-12-26T03:08:53.615Z,27.33
2022-12-26T03:09:36.325Z,24.92
2022-12-26T03:10:19.694Z,23.13
2022-12-26T03:11:01.248Z,19.75
2022-12-26T03:11:42.940Z,20.67
2022-12-26T03:12:27.375Z,21.55
2022-12-26T03:13:10.981Z,39.90
2022-12-26T03:13:33.735Z,22.80
2022-12-26T03:13:57.689Z,24.95
2022-12-26T03:14:23.689Z,22.85
2022-12-26T03:14:47.788Z,19.17
2022-12-26T03:15:12.659Z,19.33
2022-12-26T03:15:55.364Z,19.55
2022-12-26T03:16:38.341Z,19.58
2022-12-26T03:17:21.815Z,19.92
2022-12-26T03:17:47.209Z,20.45
2022-12-26T03:18:11.402Z,20.35
2022-12-26T03:18:59.096Z,19.88
2022-12-26T03:19:18.147Z,20.23
2022-12-26T03:19:58.423Z,17.85
2022-12-26T03:20:22.743Z,16.55
2022-12-26T03:20:45.539Z,16.45
2022-12-26T03:21:08.390Z,16.77
2022-12-26T03:21:35.886Z,18.83
2022-12-26T03:21:58.581Z,18.65
2022-12-26T03:22:33.453Z,19.45
2022-12-26T03:22:57.270Z,19.27
2022-12-26T03:23:20.116Z,18.42
2022-12-26T03:23:43.303Z,20.15
2022-12-26T03:24:06.545Z,21.38
2022-12-26T03:24:49.363Z,20.08
2022-12-26T03:25:32.065Z,18.73
2022-12-26T03:26:15.257Z,19.65
2022-12-26T03:26:40.641Z,20.13
2022-12-26T03:27:03.424Z,18.02
2022-12-26T03:27:26.665Z,17.77
2022-12-26T03:27:49.420Z,16.80
2022-12-26T03:28:14.155Z,17.67
2022-12-26T03:28:37.054Z,17.52
2022-12-26T03:29:19.791Z,17.92
2022-12-26T03:30:01.144Z,18.02
2022-12-26T03:30:42.963Z,16.77
2022-12-26T03:31:07.317Z,16.70
2022-12-26T03:31:31.534Z,18.88
2022-12-26T03:31:54.316Z,20.02
2022-12-26T03:32:17.980Z,17.50
2022-12-26T03:32:43.069Z,17.17
2022-12-26T03:33:06.085Z,19.90
2022-12-26T03:33:48.995Z,18.83
2022-12-26T03:34:17.559Z,22.25
2022-12-26T03:34:41.952Z,23.35
2022-12-26T03:35:09.117Z,22.88
2022-12-26T03:35:33.430Z,22.73
2022-12-26T03:35:56.154Z,24.95
2022-12-26T03:36:23.079Z,24.65
2022-12-26T03:36:55.049Z,22.83
2022-12-26T03:37:47.512Z,21.65
2022-12-26T03:38:12.850Z,20.02
2022-12-26T03:38:38.401Z,20.02
2022-12-26T03:39:07.830Z,21.48
2022-12-26T03:39:54.100Z,23.38
2022-12-26T03:40:55.917Z,20.33
2022-12-26T03:41:40.324Z,20.15
2022-12-26T03:42:23.543Z,18.60
2022-12-26T03:43:08.676Z,19.75
2022-12-26T03:43:58.794Z,19.13
2022-12-26T03:44:45.246Z,19.15
2022-12-26T03:45:33.146Z,19.80
2022-12-26T03:46:19.929Z,18.50
2022-12-26T03:47:11.860Z,20.20
2022-12-26T03:47:56.370Z,19.50
2022-12-26T03:48:41.464Z,17.80
2022-12-26T03:49:25.632Z,18.10
2022-12-26T03:50:08.624Z,19.10
2022-12-26T03:50:52.019Z,16.80
2022-12-26T03:51:37.300Z,20.15
2022-12-26T03:52:20.654Z,17.73
2022-12-26T03:53:07.392Z,17.10
2022-12-26T03:53:51.226Z,17.65
2022-12-26T03:54:33.185Z,17.98
2022-12-26T03:55:16.908Z,18.60
2022-12-26T03:56:00.657Z,18.15
2022-12-26T03:56:44.318Z,17.45
2022-12-26T03:57:28.817Z,18.70
2022-12-26T03:58:11.475Z,17.45
2022-12-26T03:58:56.430Z,20.60
2022-12-26T03:59:39.685Z,17.00
2022-12-26T04:00:23.370Z,16.45
2022-12-26T04:01:05.083Z,16.75
2022-12-26T04:01:46.862Z,17.45
2022-12-26T04:02:30.009Z,19.25
2022-12-26T04:03:29.194Z,18.50
2022-12-26T04:04:10.726Z,18.25
2022-12-26T04:04:53.625Z,17.83
2022-12-26T04:05:34.963Z,17.25
2022-12-26T04:06:17.111Z,17.13
2022-12-26T04:07:04.805Z,16.88
2022-12-26T04:07:56.654Z,17.50
2022-12-26T04:08:42.855Z,15.67
2022-12-26T04:09:27.769Z,17.23
2022-12-26T04:10:11.731Z,16.33
2022-12-26T04:10:54.394Z,16.38
2022-12-26T04:11:35.800Z,17.15
2022-12-26T04:12:17.227Z,17.52
2022-12-26T04:12:58.653Z,15.73
2022-12-26T04:13:41.263Z,16.63
2022-12-26T04:14:27.055Z,18.13
2022-12-26T04:15:12.188Z,16.98
2022-12-26T04:15:58.275Z,15.93
2022-12-26T04:16:42.242Z,15.82
2022-12-26T04:17:27.955Z,17.27
2022-12-26T04:18:12.959Z,16.95
2022-12-26T04:19:01.537Z,16.70
2022-12-26T04:19:36.970Z,17.67
2022-12-26T04:20:03.307Z,16.10
2022-12-26T04:20:30.409Z,16.17
2022-12-26T04:21:04.656Z,18.20
2022-12-26T04:21:48.467Z,16.60
2022-12-26T04:22:33.155Z,19.90
2022-12-26T04:23:17.055Z,17.42
2022-12-26T04:24:01.881Z,18.35
2022-12-26T04:24:44.818Z,19.92
2022-12-26T04:25:49.352Z,18.83
2022-12-26T04:26:31.791Z,19.15
2022-12-26T04:27:14.486Z,21.42
2022-12-26T04:27:55.827Z,20.00
2022-12-26T04:28:37.433Z,18.67
2022-12-26T04:29:18.987Z,17.73
2022-12-26T04:30:00.534Z,17.27
2022-12-26T04:30:41.808Z,17.83
2022-12-26T04:31:25.980Z,19.40
2022-12-26T04:32:10.104Z,18.48
2022-12-26T04:32:54.882Z,20.08
2022-12-26T04:33:39.323Z,20.15
2022-12-26T04:34:21.611Z,18.35
2022-12-26T04:35:04.172Z,16.27
2022-12-26T04:35:48.261Z,17.45
2022-12-26T04:36:32.810Z,19.05
2022-12-26T04:37:16.573Z,18.92
2022-12-26T04:37:59.866Z,18.30
2022-12-26T04:38:43.066Z,16.65
2022-12-26T04:39:25.617Z,17.45
2022-12-26T04:40:08.413Z,19.10
2022-12-26T04:40:52.329Z,18.35
2022-12-26T04:41:33.748Z,17.05
2022-12-26T04:42:17.695Z,15.55
2022-12-26T04:42:59.192Z,17.02
2022-12-26T04:43:49.287Z,17.63
2022-12-26T04:44:14.063Z,15.45
2022-12-26T04:44:36.819Z,15.27
2022-12-26T04:45:02.972Z,16.30
2022-12-26T04:45:25.762Z,18.35
2022-12-26T04:45:48.461Z,18.42
2022-12-26T04:46:11.227Z,16.05
2022-12-26T04:46:34.908Z,16.83
2022-12-26T04:46:58.138Z,18.00
2022-12-26T04:47:21.201Z,16.42
2022-12-26T04:48:03.959Z,15.43
2022-12-26T04:48:46.880Z,17.80
2022-12-26T04:49:27.045Z,15.95
2022-12-26T04:50:08.232Z,15.98
2022-12-26T04:50:31.102Z,16.73
2022-12-26T04:50:53.925Z,17.42
2022-12-26T04:51:16.543Z,16.73
2022-12-26T04:51:39.377Z,14.95
2022-12-26T04:52:03.613Z,15.10
2022-12-26T04:52:46.268Z,15.00
2022-12-26T04:53:09.596Z,14.90
2022-12-26T04:53:32.328Z,14.65
2022-12-26T04:53:55.078Z,15.70
2022-12-26T04:54:18.082Z,15.68
2022-12-26T04:54:40.910Z,15.95
2022-12-26T04:55:03.876Z,15.57
2022-12-26T04:55:26.911Z,15.57
2022-12-26T04:55:49.606Z,16.02
2022-12-26T04:56:13.033Z,15.90
2022-12-26T04:56:36.473Z,14.60
2022-12-26T04:56:59.190Z,15.43
2022-12-26T04:57:21.814Z,15.25
2022-12-26T04:57:44.498Z,16.08
2022-12-26T04:58:07.233Z,14.82
2022-12-26T04:58:30.599Z,14.48
2022-12-26T04:58:53.282Z,15.73
2022-12-26T04:59:16.167Z,16.25
2022-12-26T04:59:38.873Z,15.95
2022-12-26T05:00:01.657Z,14.90
2022-12-26T05:00:25.209Z,14.68
2022-12-26T05:00:47.993Z,15.10
2022-12-26T05:01:29.607Z,15.20
2022-12-26T05:02:11.038Z,15.10
2022-12-26T05:02:52.786Z,14.88
2022-12-26T05:03:34.622Z,15.20
2022-12-26T05:04:17.450Z,18.00
2022-12-26T05:05:18.888Z,16.70
2022-12-26T05:06:00.843Z,17.30
2022-12-26T05:06:41.773Z,17.52
2022-12-26T05:07:23.994Z,18.90
2022-12-26T05:08:05.099Z,17.55
2022-12-26T05:08:49.541Z,16.48
2022-12-26T05:09:30.732Z,17.83
2022-12-26T05:09:53.697Z,15.57
2022-12-26T05:10:18.600Z,19.27
2022-12-26T05:10:41.358Z,16.63
2022-12-26T05:11:04.178Z,16.92
2022-12-26T05:11:27.493Z,16.90
2022-12-26T05:11:50.196Z,16.85
2022-12-26T05:12:12.938Z,17.20
2022-12-26T05:12:35.688Z,16.60
2022-12-26T05:12:58.410Z,16.05
2022-12-26T05:13:21.130Z,16.60
2022-12-26T05:13:43.937Z,15.85
2022-12-26T05:14:06.730Z,16.20
2022-12-26T05:14:31.912Z,16.73
2022-12-26T05:14:54.895Z,15.93
2022-12-26T05:15:20.514Z,15.35
2022-12-26T05:16:01.838Z,16.23
2022-12-26T05:16:43.500Z,15.40
2022-12-26T05:17:25.331Z,15.95
2022-12-26T05:18:06.735Z,16.20
2022-12-26T05:18:47.935Z,14.88
2022-12-26T05:19:31.312Z,14.23
2022-12-26T05:20:13.024Z,15.85
2022-12-26T05:20:38.573Z,15.90
2022-12-26T05:21:20.568Z,17.27
2022-12-26T05:22:02.095Z,18.83
2022-12-26T05:22:43.185Z,16.80
2022-12-26T05:23:24.479Z,16.25
2022-12-26T05:24:05.717Z,15.63
2022-12-26T05:24:50.883Z,19.50
2022-12-26T05:25:33.927Z,18.85
2022-12-26T05:26:14.844Z,16.25
2022-12-26T05:26:56.017Z,19.70
2022-12-26T05:27:37.281Z,15.80
2022-12-26T05:28:18.768Z,17.17
2022-12-26T05:28:44.442Z,16.88
2022-12-26T05:29:07.119Z,17.58
2022-12-26T05:29:29.874Z,17.23
2022-12-26T05:29:52.623Z,17.00
2022-12-26T05:30:17.717Z,18.48
2022-12-26T05:30:40.480Z,17.92
2022-12-26T05:31:03.298Z,17.95
2022-12-26T05:31:31.184Z,20.17
2022-12-26T05:31:57.922Z,18.85
2022-12-26T05:32:39.610Z,18.52
2022-12-26T05:33:21.122Z,19.05
2022-12-26T05:34:02.248Z,17.48
2022-12-26T05:34:26.504Z,17.35
2022-12-26T05:34:49.254Z,17.67
2022-12-26T05:35:12.189Z,19.48
2022-12-26T05:35:34.917Z,18.20
2022-12-26T05:36:00.165Z,17.13
2022-12-26T05:36:24.517Z,18.45
2022-12-26T05:36:48.313Z,17.88
2022-12-26T05:37:11.123Z,18.27
2022-12-26T05:37:35.568Z,18.52
2022-12-26T05:37:58.250Z,16.80
2022-12-26T05:38:21.006Z,16.45
2022-12-26T05:38:43.779Z,19.35
2022-12-26T05:39:06.634Z,18.15
2022-12-26T05:39:29.478Z,16.95
2022-12-26T05:39:52.177Z,16.05
2022-12-26T05:40:15.008Z,17.40
2022-12-26T05:40:37.695Z,17.58
2022-12-26T05:41:00.433Z,16.55
2022-12-26T05:41:23.213Z,16.90
2022-12-26T05:41:46.104Z,16.92
2022-12-26T05:42:08.861Z,15.32
2022-12-26T05:42:31.631Z,15.90
2022-12-26T05:42:54.329Z,16.52
2022-12-26T05:43:18.923Z,17.25
2022-12-26T05:43:41.630Z,16.75
2022-12-26T05:44:05.644Z,17.52
2022-12-26T05:44:28.321Z,17.33
2022-12-26T05:44:51.049Z,14.77
2022-12-26T05:45:13.869Z,16.95
2022-12-26T05:45:36.935Z,17.08
2022-12-26T05:45:59.935Z,15.55
2022-12-26T05:46:22.723Z,15.82
2022-12-26T05:46:47.120Z,15.75
2022-12-26T05:47:10.210Z,15.65
2022-12-26T05:47:33.028Z,17.23
2022-12-26T05:47:59.249Z,15.23
2022-12-26T05:48:21.923Z,14.90
2022-12-26T05:48:44.647Z,16.02
2022-12-26T05:49:07.358Z,15.93
2022-12-26T05:49:31.663Z,15.75
2022-12-26T05:49:55.447Z,17.02
2022-12-26T05:50:18.253Z,15.60
2022-12-26T05:50:40.962Z,15.88
2022-12-26T05:51:07.018Z,16.45
2022-12-26T05:51:29.725Z,15.38
2022-12-26T05:51:52.519Z,14.38
2022-12-26T05:52:15.309Z,13.77
2022-12-26T05:52:39.155Z,15.10
2022-12-26T05:53:01.924Z,16.83
2022-12-26T05:53:24.701Z,15.90
2022-12-26T05:53:48.737Z,17.48
2022-12-26T05:54:11.504Z,16.52
2022-12-26T05:54:34.307Z,16.95
2022-12-26T05:54:57.089Z,15.40
2022-12-26T05:55:19.924Z,16.42
2022-12-26T05:55:42.613Z,14.60
2022-12-26T05:56:05.944Z,14.20
2022-12-26T05:56:28.660Z,15.55
2022-12-26T05:56:51.409Z,14.60
2022-12-26T05:57:14.160Z,14.85
2022-12-26T05:57:36.881Z,15.75
2022-12-26T05:57:59.961Z,18.25
2022-12-26T05:58:22.733Z,18.08
2022-12-26T05:58:45.606Z,15.13
2022-12-26T05:59:10.097Z,15.93
2022-12-26T05:59:32.908Z,18.63
2022-12-26T05:59:55.688Z,18.92
2022-12-26T06:00:18.660Z,18.40
2022-12-26T06:00:41.439Z,18.33
2022-12-26T06:01:08.935Z,17.38
2022-12-26T06:01:31.897Z,17.02
2022-12-26T06:01:54.927Z,17.33
2022-12-26T06:02:17.948Z,17.70
2022-12-26T06:02:40.938Z,16.67
2022-12-26T06:03:05.272Z,19.58
2022-12-26T06:03:29.911Z,19.25
2022-12-26T06:03:53.716Z,17.63
2022-12-26T06:04:16.533Z,17.63
2022-12-26T06:04:40.789Z,15.93
2022-12-26T06:05:04.511Z,16.92
2022-12-26T06:05:27.248Z,17.92
2022-12-26T06:05:49.943Z,17.60
2022-12-26T06:06:12.646Z,18.65
2022-12-26T06:06:35.411Z,18.80
2022-12-26T06:06:58.381Z,18.35
2022-12-26T06:07:21.131Z,17.35
2022-12-26T06:07:43.872Z,16.80
2022-12-26T06:08:06.648Z,16.90
2022-12-26T06:08:29.424Z,16.58
2022-12-26T06:08:52.670Z,18.75
2022-12-26T06:09:15.403Z,17.45
2022-12-26T06:09:38.144Z,19.55
2022-12-26T06:10:00.803Z,20.00
2022-12-26T06:10:23.550Z,15.60
2022-12-26T06:10:46.274Z,17.25
2022-12-26T06:11:10.093Z,15.95
2022-12-26T06:11:32.796Z,18.08
2022-12-26T06:11:55.531Z,17.35
2022-12-26T06:12:18.404Z,18.00
2022-12-26T06:12:41.267Z,16.75
2022-12-26T06:13:04.003Z,17.50
2022-12-26T06:13:26.744Z,18.13
2022-12-26T06:13:49.636Z,15.95
2022-12-26T06:14:12.359Z,19.02
2022-12-26T06:14:35.065Z,19.85
2022-12-26T06:14:57.895Z,18.85
2022-12-26T06:15:20.720Z,17.08
2022-12-26T06:15:43.528Z,17.13